Time;durP1;ratioP1;P1;durP2;ratioP2;P2;SDS_P1;SDS_P2;PMS_P1;PMS_P2;Temp;Humidity;BMP_temperature;BMP_pressure;BME280_temperature;BME280_humidity;BME280_pressure;Samples;Min_cycle;Max_cycle;Signal;HPM_P1;HPM_P2
2021/05/08 00:01:35;;;;;;;3.72;3.03;;;11.40;98.00;;;;;;5064801;28;20217;-71
2021/05/08 00:04:01;;;;;;;3.67;3.38;;;11.40;98.10;;;;;;5065962;28;20222;-71
2021/05/08 00:06:27;;;;;;;4.22;3.10;;;11.30;98.10;;;;;;5057594;28;20206;-70
2021/05/08 00:08:54;;;;;;;3.60;3.17;;;11.30;98.10;;;;;;5071485;28;20236;-70
2021/05/08 00:11:20;;;;;;;3.50;3.20;;;11.30;98.10;;;;;;5071786;28;20213;-70
2021/05/08 00:13:46;;;;;;;3.47;3.17;;;11.30;98.10;;;;;;5070418;28;20551;-70
2021/05/08 00:16:13;;;;;;;3.90;3.60;;;11.30;98.20;;;;;;5071455;28;20202;-70
2021/05/08 00:18:39;;;;;;;4.88;3.10;;;11.20;98.20;;;;;;5070419;28;20237;-69
2021/05/08 00:21:06;;;;;;;4.80;3.55;;;11.20;98.20;;;;;;5071151;28;20654;-69
2021/05/08 00:23:32;;;;;;;3.10;2.90;;;11.20;98.30;;;;;;5055145;28;20682;-69
2021/05/08 00:25:58;;;;;;;4.22;3.15;;;11.20;98.30;;;;;;5071409;28;20205;-69
2021/05/08 00:28:24;;;;;;;4.13;3.72;;;11.10;98.30;;;;;;5071067;28;20194;-70
2021/05/08 00:30:50;;;;;;;5.20;4.10;;;11.10;98.30;;;;;;5069938;28;20197;-71
2021/05/08 00:33:17;;;;;;;4.57;4.10;;;11.10;98.30;;;;;;5071337;28;20209;-71
2021/05/08 00:35:43;;;;;;;4.10;3.53;;;11.10;98.40;;;;;;5069429;28;20818;-71
2021/05/08 00:38:10;;;;;;;3.65;3.35;;;11.10;98.40;;;;;;5056296;28;20198;-70
2021/05/08 00:40:36;;;;;;;3.50;3.20;;;11.10;98.40;;;;;;5071635;28;20264;-70
2021/05/08 00:43:02;;;;;;;4.15;3.33;;;11.00;98.40;;;;;;5071000;28;20695;-70
2021/05/08 00:45:29;;;;;;;4.18;3.78;;;11.00;98.40;;;;;;5069876;28;20245;-71
2021/05/08 00:48:04;;;;;;;3.50;3.20;;;11.00;98.50;;;;;;5071024;28;20190;-70
2021/05/08 00:50:33;;;;;;;3.50;3.20;;;11.00;98.50;;;;;;5070581;28;20808;-71
2021/05/08 00:52:59;;;;;;;3.90;3.60;;;11.00;98.50;;;;;;5060578;28;20662;-70
2021/05/08 00:55:25;;;;;;;3.95;3.65;;;11.00;98.50;;;;;;5061378;28;20202;-71
2021/05/08 00:57:52;;;;;;;4.05;3.67;;;10.90;98.50;;;;;;5055486;28;20194;-69
2021/05/08 01:00:19;;;;;;;4.00;3.60;;;10.90;98.50;;;;;;5071079;28;20205;-71
2021/05/08 01:02:46;;;;;;;3.83;3.53;;;10.90;98.50;;;;;;5063465;28;20276;-69
2021/05/08 01:05:12;;;;;;;4.68;4.20;;;10.90;98.60;;;;;;5065025;28;20217;-70
2021/05/08 01:07:40;;;;;;;4.03;3.72;;;10.90;98.50;;;;;;5066978;28;20198;-69
2021/05/08 01:10:09;;;;;;;4.40;3.03;;;10.90;98.60;;;;;;5071040;28;20206;-69
2021/05/08 01:12:36;;;;;;;4.05;3.65;;;10.80;98.60;;;;;;5070568;28;20201;-69
2021/05/08 01:15:04;;;;;;;3.63;3.33;;;10.80;98.60;;;;;;5063823;28;20190;-70
2021/05/08 01:17:30;;;;;;;5.57;4.38;;;10.80;98.60;;;;;;5063630;28;20226;-69
2021/05/08 01:19:56;;;;;;;3.75;3.25;;;10.80;98.60;;;;;;5070100;28;20230;-69
2021/05/08 01:22:23;;;;;;;5.03;3.80;;;10.80;98.60;;;;;;5070427;28;20634;-69
2021/05/08 01:24:49;;;;;;;4.68;3.03;;;10.80;98.60;;;;;;5064550;28;20215;-69
2021/05/08 01:27:16;;;;;;;4.28;3.88;;;10.80;98.60;;;;;;5050692;28;20214;-70
2021/05/08 01:29:42;;;;;;;5.35;3.40;;;10.70;98.60;;;;;;5067678;28;20206;-70
2021/05/08 01:32:08;;;;;;;3.17;2.88;;;10.80;98.70;;;;;;5050977;28;20202;-69
2021/05/08 01:34:34;;;;;;;3.33;2.80;;;10.70;98.70;;;;;;5058746;28;20549;-70
2021/05/08 01:37:02;;;;;;;4.07;3.67;;;10.70;98.70;;;;;;5070494;28;20251;-70
2021/05/08 01:39:29;;;;;;;5.80;3.92;;;10.60;98.80;;;;;;5062734;28;20249;-70
2021/05/08 01:41:55;;;;;;;5.15;3.25;;;10.60;98.80;;;;;;5050431;28;20213;-70
2021/05/08 01:44:21;;;;;;;4.60;4.15;;;10.60;98.80;;;;;;5057303;28;20505;-70
2021/05/08 01:46:47;;;;;;;3.50;3.17;;;10.60;98.90;;;;;;5055921;28;20203;-70
2021/05/08 01:49:13;;;;;;;4.13;3.65;;;10.60;98.90;;;;;;5062977;28;20206;-70
2021/05/08 01:51:39;;;;;;;5.15;4.32;;;10.60;98.90;;;;;;5072254;28;20593;-70
2021/05/08 01:54:06;;;;;;;3.85;3.55;;;10.60;99.00;;;;;;5070047;28;20197;-70
2021/05/08 01:56:33;;;;;;;4.10;3.80;;;10.60;98.90;;;;;;5068371;28;20197;-70
2021/05/08 01:58:59;;;;;;;4.38;3.67;;;10.60;98.80;;;;;;5075297;28;20198;-70
2021/05/08 02:01:25;;;;;;;4.95;4.55;;;10.60;98.90;;;;;;5074854;28;20197;-69
2021/05/08 02:03:51;;;;;;;4.00;3.55;;;10.50;99.00;;;;;;5073285;28;20222;-69
2021/05/08 02:06:18;;;;;;;3.70;3.40;;;10.50;99.10;;;;;;5068830;28;20211;-70
2021/05/08 02:08:44;;;;;;;3.78;3.42;;;10.50;99.00;;;;;;5062825;28;20190;-70
2021/05/08 02:11:10;;;;;;;4.25;3.60;;;10.50;99.00;;;;;;5073311;28;20669;-69
2021/05/08 02:13:39;;;;;;;4.75;3.92;;;10.50;99.10;;;;;;5075041;28;20212;-69
2021/05/08 02:16:05;;;;;;;3.72;3.40;;;10.50;99.10;;;;;;5064672;28;20191;-69
2021/05/08 02:18:32;;;;;;;4.75;3.35;;;10.50;99.10;;;;;;5055627;28;20239;-69
2021/05/08 02:20:58;;;;;;;4.57;3.42;;;10.50;99.00;;;;;;5072451;28;20198;-69
2021/05/08 02:23:24;;;;;;;3.80;3.40;;;10.40;99.00;;;;;;5066864;28;20230;-70
2021/05/08 02:25:50;;;;;;;4.82;4.20;;;10.40;99.10;;;;;;5074756;28;20201;-70
2021/05/08 02:28:17;;;;;;;5.68;3.95;;;10.40;99.10;;;;;;5073526;28;20198;-70
2021/05/08 02:30:44;;;;;;;4.35;3.95;;;10.40;99.10;;;;;;5070215;28;20193;-70
2021/05/08 02:33:10;;;;;;;5.28;4.13;;;10.40;99.10;;;;;;5074407;28;20205;-70
2021/05/08 02:35:38;;;;;;;4.75;3.78;;;10.40;99.10;;;;;;5073393;28;20216;-69
2021/05/08 02:38:04;;;;;;;5.18;3.95;;;10.40;99.00;;;;;;5074358;28;20638;-69
2021/05/08 02:40:32;;;;;;;8.15;4.05;;;10.30;99.10;;;;;;5071936;28;20650;-69
2021/05/08 02:42:59;;;;;;;4.38;3.97;;;10.30;99.10;;;;;;5054312;28;20203;-69
2021/05/08 02:45:25;;;;;;;5.30;4.05;;;10.30;99.10;;;;;;5063743;28;20222;-69
2021/05/08 02:47:52;;;;;;;4.47;3.90;;;10.30;99.20;;;;;;5053613;28;20203;-69
2021/05/08 02:50:21;;;;;;;6.30;5.70;;;10.30;99.30;;;;;;5053704;28;20199;-70
2021/05/08 02:52:47;;;;;;;5.40;3.95;;;10.30;99.20;;;;;;5053433;28;20211;-69
2021/05/08 02:55:14;;;;;;;4.55;4.05;;;10.20;99.20;;;;;;5055663;28;20199;-69
2021/05/08 02:57:41;;;;;;;5.97;3.95;;;10.20;99.20;;;;;;5064127;28;20244;-69
2021/05/08 03:00:09;;;;;;;5.70;4.00;;;10.20;99.30;;;;;;5070806;28;20225;-69
2021/05/08 03:02:35;;;;;;;6.32;4.30;;;10.20;99.40;;;;;;5073338;28;20252;-69
2021/05/08 03:05:04;;;;;;;6.90;4.25;;;10.20;99.40;;;;;;5072798;28;20218;-69
2021/05/08 03:07:30;;;;;;;4.53;4.13;;;10.10;99.40;;;;;;5072149;28;20538;-69
2021/05/08 03:09:56;;;;;;;4.85;3.50;;;10.10;99.50;;;;;;5072623;28;20198;-69
2021/05/08 03:12:23;;;;;;;4.45;4.05;;;10.10;99.40;;;;;;5071548;28;20198;-69
2021/05/08 03:14:49;;;;;;;6.05;4.00;;;10.10;99.40;;;;;;5064991;28;20190;-69
2021/05/08 03:17:15;;;;;;;5.05;4.32;;;10.10;99.40;;;;;;5072547;28;20543;-69
2021/05/08 03:19:41;;;;;;;5.28;3.80;;;10.10;99.50;;;;;;5070112;28;20233;-69
2021/05/08 03:22:08;;;;;;;4.78;4.30;;;10.10;99.50;;;;;;5073101;28;20588;-69
2021/05/08 03:24:35;;;;;;;4.50;4.10;;;10.00;99.40;;;;;;5062714;28;20693;-69
2021/05/08 03:27:01;;;;;;;4.30;3.60;;;10.00;99.40;;;;;;5072430;28;20197;-69
2021/05/08 03:29:28;;;;;;;4.65;4.00;;;10.00;99.50;;;;;;5068368;28;20551;-69
2021/05/08 03:31:54;;;;;;;5.03;4.43;;;9.90;99.90;;;;;;5069268;28;20198;-69
2021/05/08 03:34:21;;;;;;;4.95;3.90;;;9.90;99.90;;;;;;5062241;28;20202;-69
2021/05/08 03:36:47;;;;;;;4.90;4.00;;;9.90;99.90;;;;;;5068135;28;20203;-69
2021/05/08 03:39:14;;;;;;;4.18;3.78;;;9.90;99.90;;;;;;5071945;28;20247;-69
2021/05/08 03:41:41;;;;;;;6.40;4.88;;;9.90;99.90;;;;;;5069694;28;20225;-69
2021/05/08 03:44:08;;;;;;;4.38;3.75;;;9.90;99.90;;;;;;5072418;28;20233;-69
2021/05/08 03:46:34;;;;;;;4.65;4.22;;;9.90;99.90;;;;;;5068225;28;20593;-69
2021/05/08 03:49:00;;;;;;;4.28;3.92;;;9.80;99.90;;;;;;5070945;28;20197;-69
2021/05/08 03:51:26;;;;;;;4.15;3.75;;;9.90;99.90;;;;;;5072342;28;20227;-71
2021/05/08 03:53:54;;;;;;;5.53;3.80;;;9.90;99.90;;;;;;5072116;28;20641;-69
2021/05/08 03:56:21;;;;;;;6.93;4.50;;;9.80;99.90;;;;;;5067068;28;20205;-70
2021/05/08 03:58:47;;;;;;;4.53;3.80;;;9.90;99.90;;;;;;5071977;28;20194;-69
2021/05/08 04:01:13;;;;;;;4.75;4.35;;;9.80;99.90;;;;;;5061108;28;20214;-69
2021/05/08 04:03:40;;;;;;;5.50;4.35;;;9.80;99.90;;;;;;5057701;28;20218;-70
2021/05/08 04:06:06;;;;;;;4.38;3.25;;;9.80;99.90;;;;;;5071614;28;20194;-69
2021/05/08 04:08:33;;;;;;;3.70;3.40;;;9.80;99.90;;;;;;5071991;28;20205;-70
2021/05/08 04:10:59;;;;;;;4.28;3.85;;;9.80;99.90;;;;;;5070434;28;20251;-69
2021/05/08 04:13:26;;;;;;;3.80;3.50;;;9.80;99.90;;;;;;5072008;28;20557;-69
2021/05/08 04:15:52;;;;;;;4.30;3.80;;;9.80;99.90;;;;;;5071947;28;20197;-69
2021/05/08 04:18:19;;;;;;;4.93;4.00;;;9.80;99.90;;;;;;5063982;28;20661;-69
2021/05/08 04:20:46;;;;;;;4.30;3.33;;;9.80;99.90;;;;;;5070601;28;20545;-69
2021/05/08 04:23:12;;;;;;;3.80;3.50;;;9.80;99.90;;;;;;5071380;28;20202;-69
2021/05/08 04:25:38;;;;;;;4.18;3.72;;;9.70;99.90;;;;;;5071211;28;20447;-69
2021/05/08 04:28:07;;;;;;;5.70;5.13;;;9.70;99.90;;;;;;5066385;28;20194;-71
2021/05/08 04:30:34;;;;;;;4.25;3.85;;;9.70;99.90;;;;;;5070458;28;20265;-71
2021/05/08 04:33:01;;;;;;;5.13;4.20;;;9.70;99.90;;;;;;5067953;28;20202;-71
2021/05/08 04:35:27;;;;;;;5.03;4.50;;;9.80;99.90;;;;;;5070989;28;20251;-71
2021/05/08 04:37:53;;;;;;;3.90;3.60;;;9.80;99.90;;;;;;5071385;28;20202;-68
2021/05/08 04:40:19;;;;;;;3.97;3.55;;;9.70;99.90;;;;;;5069494;28;20912;-70
2021/05/08 04:42:45;;;;;;;4.78;4.35;;;9.80;99.90;;;;;;5071035;28;20209;-69
2021/05/08 04:45:12;;;;;;;4.53;3.80;;;9.70;99.90;;;;;;5071432;28;20275;-69
2021/05/08 04:47:39;;;;;;;3.92;3.53;;;9.80;99.90;;;;;;5062258;28;20198;-70
2021/05/08 04:50:05;;;;;;;3.92;3.53;;;9.70;99.90;;;;;;5071247;28;20194;-69
2021/05/08 04:52:32;;;;;;;5.18;4.25;;;9.70;99.90;;;;;;5069149;28;20202;-70
2021/05/08 04:54:58;;;;;;;5.05;4.55;;;9.70;99.90;;;;;;5071310;28;20251;-70
2021/05/08 04:57:24;;;;;;;4.35;3.95;;;9.70;99.90;;;;;;5070976;28;20259;-70
2021/05/08 04:59:50;;;;;;;4.10;3.70;;;9.70;99.90;;;;;;5061551;28;20336;-70
2021/05/08 05:02:17;;;;;;;4.53;4.07;;;9.70;99.90;;;;;;5065637;28;20226;-70
2021/05/08 05:04:44;;;;;;;4.90;4.40;;;9.60;99.90;;;;;;5070818;28;20605;-69
2021/05/08 05:07:10;;;;;;;5.95;4.25;;;9.60;99.90;;;;;;5070748;28;20213;-70
2021/05/08 05:09:36;;;;;;;4.10;3.70;;;9.70;99.90;;;;;;5069383;28;20194;-71
2021/05/08 05:12:02;;;;;;;4.70;4.22;;;9.70;99.90;;;;;;5070690;28;20224;-70
2021/05/08 05:14:28;;;;;;;7.03;4.63;;;9.60;99.90;;;;;;5070810;28;20198;-70
2021/05/08 05:16:55;;;;;;;5.43;4.20;;;9.70;99.90;;;;;;5064831;28;20198;-71
2021/05/08 05:19:21;;;;;;;5.72;5.13;;;9.70;99.90;;;;;;5070275;28;20230;-70
2021/05/08 05:21:48;;;;;;;5.65;4.85;;;9.70;99.90;;;;;;5064566;28;20285;-70
2021/05/08 05:24:15;;;;;;;4.50;4.07;;;9.70;99.90;;;;;;5050312;28;20225;-70
2021/05/08 05:26:41;;;;;;;5.10;4.40;;;9.70;99.90;;;;;;5070027;28;20268;-70
2021/05/08 05:29:09;;;;;;;5.13;4.07;;;9.70;99.90;;;;;;5070429;28;20260;-69
2021/05/08 05:31:36;;;;;;;5.45;4.32;;;9.60;99.90;;;;;;5069640;28;20194;-70
2021/05/08 05:34:02;;;;;;;5.80;5.20;;;9.60;99.90;;;;;;5070801;28;20190;-70
2021/05/08 05:36:28;;;;;;;5.18;4.68;;;9.60;99.90;;;;;;5070173;28;20255;-70
2021/05/08 05:38:56;;;;;;;6.50;5.55;;;9.60;99.90;;;;;;5070140;28;20193;-70
2021/05/08 05:41:22;;;;;;;5.90;5.40;;;9.70;99.90;;;;;;5060067;28;20687;-70
2021/05/08 05:43:48;;;;;;;5.60;5.10;;;9.70;99.90;;;;;;5050400;28;20215;-70
2021/05/08 05:46:14;;;;;;;5.70;5.15;;;9.80;99.90;;;;;;5065009;28;20714;-70
2021/05/08 05:48:40;;;;;;;6.82;6.13;;;10.00;99.30;;;;;;5070044;28;20190;-70
2021/05/08 05:51:08;;;;;;;6.43;5.50;;;10.20;98.80;;;;;;5065743;28;20206;-70
2021/05/08 05:53:34;;;;;;;6.53;5.65;;;10.20;98.40;;;;;;5069921;28;20194;-70
2021/05/08 05:56:01;;;;;;;5.03;4.63;;;10.20;98.60;;;;;;5067666;28;20205;-71
2021/05/08 05:58:28;;;;;;;7.05;6.30;;;10.40;98.20;;;;;;5064215;28;20226;-70
2021/05/08 06:00:54;;;;;;;6.13;5.20;;;10.60;97.40;;;;;;5053138;28;20191;-70
2021/05/08 06:03:20;;;;;;;5.20;4.70;;;10.90;96.60;;;;;;5060581;28;20201;-69
2021/05/08 06:05:47;;;;;;;5.30;4.80;;;11.10;95.70;;;;;;5061643;28;20218;-69
2021/05/08 06:08:13;;;;;;;5.47;4.50;;;11.30;95.00;;;;;;5053828;28;20195;-69
2021/05/08 06:10:39;;;;;;;7.28;5.35;;;11.50;94.20;;;;;;5070067;28;20190;-69
2021/05/08 06:13:06;;;;;;;4.97;4.47;;;11.70;93.50;;;;;;5067546;28;20198;-70
2021/05/08 06:15:33;;;;;;;4.45;4.05;;;11.80;92.80;;;;;;5053555;28;20620;-69
2021/05/08 06:17:59;;;;;;;5.35;4.30;;;12.00;92.30;;;;;;5063092;28;20226;-69
2021/05/08 06:20:25;;;;;;;5.00;4.60;;;12.10;92.20;;;;;;5059183;28;20230;-70
2021/05/08 06:22:51;;;;;;;4.85;4.45;;;12.30;91.50;;;;;;5069396;28;20205;-69
2021/05/08 06:25:17;;;;;;;4.55;4.15;;;12.30;91.00;;;;;;5069572;28;20218;-69
2021/05/08 06:27:44;;;;;;;5.00;4.50;;;12.40;90.70;;;;;;5066120;28;20349;-70
2021/05/08 06:30:12;;;;;;;5.13;4.72;;;12.50;90.50;;;;;;5049987;28;20203;-70
2021/05/08 06:32:38;;;;;;;4.45;3.95;;;12.60;90.40;;;;;;5050434;28;20631;-69
2021/05/08 06:35:05;;;;;;;4.63;3.88;;;12.60;90.30;;;;;;5071690;28;20194;-69
2021/05/08 06:37:33;;;;;;;5.55;4.13;;;12.70;89.90;;;;;;5072180;28;20202;-70
2021/05/08 06:39:59;;;;;;;4.38;3.85;;;12.60;90.00;;;;;;5073530;28;20202;-69
2021/05/08 06:42:25;;;;;;;5.47;4.65;;;12.60;90.10;;;;;;5072850;28;20190;-69
2021/05/08 06:44:51;;;;;;;4.30;4.00;;;12.60;90.00;;;;;;5070291;28;20222;-69
2021/05/08 06:47:18;;;;;;;4.53;4.13;;;12.60;90.20;;;;;;5072652;28;20202;-69
2021/05/08 06:49:45;;;;;;;4.82;4.32;;;12.40;90.70;;;;;;5073739;28;20202;-69
2021/05/08 06:52:11;;;;;;;5.18;4.78;;;12.30;91.30;;;;;;5069300;28;20207;-69
2021/05/08 06:54:38;;;;;;;4.38;3.97;;;12.10;91.70;;;;;;5071957;28;20190;-70
2021/05/08 06:57:05;;;;;;;5.68;4.78;;;12.00;92.40;;;;;;5070556;28;20206;-70
2021/05/08 06:59:31;;;;;;;4.05;3.75;;;12.00;92.60;;;;;;5073070;28;20210;-70
2021/05/08 07:01:57;;;;;;;4.50;4.10;;;12.00;92.50;;;;;;5070479;28;20202;-70
2021/05/08 07:04:24;;;;;;;4.13;3.75;;;12.10;92.50;;;;;;5072645;28;20214;-69
2021/05/08 07:06:51;;;;;;;3.60;3.33;;;12.10;92.30;;;;;;5064877;28;20202;-70
2021/05/08 07:09:17;;;;;;;4.20;3.85;;;12.20;92.20;;;;;;5073067;28;20205;-69
2021/05/08 07:11:43;;;;;;;4.03;3.67;;;12.30;92.00;;;;;;5071490;28;20190;-70
2021/05/08 07:14:09;;;;;;;4.03;3.65;;;12.40;91.60;;;;;;5052994;28;21036;-70
2021/05/08 07:16:36;;;;;;;7.40;3.53;;;12.50;91.20;;;;;;5055634;28;20203;-70
2021/05/08 07:19:02;;;;;;;4.15;3.17;;;12.50;91.10;;;;;;5067782;28;20238;-69
2021/05/08 07:21:29;;;;;;;4.32;3.80;;;12.50;91.10;;;;;;5072262;28;20198;-69
2021/05/08 07:23:55;;;;;;;4.50;4.10;;;12.60;91.10;;;;;;5072913;28;20214;-71
2021/05/08 07:26:21;;;;;;;4.28;3.88;;;12.60;91.00;;;;;;5070551;28;20252;-70
2021/05/08 07:28:48;;;;;;;4.32;3.92;;;12.60;90.90;;;;;;5072454;28;20202;-69
2021/05/08 07:31:14;;;;;;;4.20;3.65;;;12.70;90.90;;;;;;5072776;28;20271;-70
2021/05/08 07:33:40;;;;;;;4.15;3.78;;;12.70;90.80;;;;;;5054973;28;20202;-68
2021/05/08 07:36:07;;;;;;;4.57;3.67;;;12.70;90.50;;;;;;5059814;28;20198;-69
2021/05/08 07:38:34;;;;;;;3.97;3.58;;;12.70;90.50;;;;;;5065028;28;20281;-69
2021/05/08 07:41:00;;;;;;;3.90;3.30;;;12.80;90.60;;;;;;5056551;28;20198;-71
2021/05/08 07:43:26;;;;;;;4.05;3.33;;;12.80;90.50;;;;;;5053290;28;20277;-69
2021/05/08 07:45:54;;;;;;;3.22;2.92;;;12.80;90.40;;;;;;5056036;28;20542;-69
2021/05/08 07:48:20;;;;;;;4.53;4.07;;;12.80;90.40;;;;;;5052625;28;20206;-69
2021/05/08 07:50:46;;;;;;;3.80;3.45;;;12.90;90.20;;;;;;5053325;28;20659;-68
2021/05/08 07:53:12;;;;;;;3.97;3.65;;;12.90;90.00;;;;;;5061957;28;20207;-69
2021/05/08 07:55:39;;;;;;;3.67;3.38;;;12.90;89.60;;;;;;5052189;28;20260;-70
2021/05/08 07:58:06;;;;;;;3.92;3.42;;;12.90;89.40;;;;;;5059241;28;20202;-71
2021/05/08 08:00:33;;;;;;;3.63;3.25;;;12.90;89.70;;;;;;5071861;28;20198;-70
2021/05/08 08:02:59;;;;;;;3.72;3.38;;;12.90;89.80;;;;;;5067816;28;20198;-70
2021/05/08 08:05:25;;;;;;;3.92;3.50;;;12.90;89.90;;;;;;5072386;28;20214;-70
2021/05/08 08:07:52;;;;;;;5.30;2.70;;;12.90;90.00;;;;;;5073770;28;20221;-70
2021/05/08 08:10:18;;;;;;;3.50;3.15;;;12.90;90.00;;;;;;5072037;28;20213;-70
2021/05/08 08:12:45;;;;;;;4.75;3.55;;;12.90;90.10;;;;;;5069793;28;20195;-70
2021/05/08 08:15:13;;;;;;;3.20;2.90;;;12.90;90.00;;;;;;5072063;28;20202;-70
2021/05/08 08:17:39;;;;;;;3.65;3.33;;;12.90;90.00;;;;;;5071707;28;20206;-69
2021/05/08 08:20:08;;;;;;;4.30;3.90;;;13.00;90.10;;;;;;5071463;28;20225;-69
2021/05/08 08:22:35;;;;;;;2.70;2.50;;;13.00;89.40;;;;;;5070319;28;20229;-69
2021/05/08 08:25:01;;;;;;;3.13;2.83;;;13.00;89.30;;;;;;5071277;28;20202;-69
2021/05/08 08:27:27;;;;;;;3.28;2.97;;;13.00;89.40;;;;;;5069534;28;20209;-70
2021/05/08 08:29:54;;;;;;;3.10;2.83;;;13.10;89.50;;;;;;5071380;28;20194;-71
2021/05/08 08:32:20;;;;;;;4.25;2.88;;;13.10;88.70;;;;;;5071023;28;20205;-73
2021/05/08 08:34:47;;;;;;;3.10;2.53;;;13.20;88.00;;;;;;5070265;28;20198;-72
2021/05/08 08:37:13;;;;;;;2.72;2.53;;;13.20;87.20;;;;;;5071869;28;20657;-71
2021/05/08 08:39:39;;;;;;;3.47;2.88;;;13.30;87.00;;;;;;5071058;28;20290;-71
2021/05/08 08:42:07;;;;;;;2.55;2.30;;;13.30;87.00;;;;;;5071172;28;20202;-71
2021/05/08 08:44:34;;;;;;;5.10;3.88;;;13.30;86.80;;;;;;5069438;28;20540;-71
2021/05/08 08:47:02;;;;;;;3.72;2.65;;;13.40;86.30;;;;;;5071182;28;20202;-71
2021/05/08 08:49:29;;;;;;;2.95;2.35;;;13.50;85.40;;;;;;5071301;28;20198;-71
2021/05/08 08:51:55;;;;;;;3.70;3.08;;;13.50;85.20;;;;;;5068929;28;20274;-71
2021/05/08 08:54:22;;;;;;;5.18;3.72;;;13.60;84.70;;;;;;5070521;28;20214;-71
2021/05/08 08:56:51;;;;;;;2.13;1.92;;;13.60;84.30;;;;;;5071163;28;20255;-71
2021/05/08 08:59:26;;;;;;;3.25;2.95;;;13.70;84.30;;;;;;5069886;28;20233;-71
2021/05/08 09:01:52;;;;;;;3.00;2.70;;;13.70;84.20;;;;;;5053031;28;20399;-71
2021/05/08 09:04:19;;;;;;;2.72;2.22;;;13.70;84.80;;;;;;5062261;28;20218;-71
2021/05/08 09:06:48;;;;;;;4.88;2.75;;;13.70;84.40;;;;;;5064701;28;20246;-71
2021/05/08 09:09:16;;;;;;;3.50;2.60;;;13.70;84.50;;;;;;5069515;28;20197;-71
2021/05/08 09:11:47;;;;;;;2.78;2.40;;;13.70;84.30;;;;;;5070526;28;20198;-71
2021/05/08 09:14:22;;;;;;;3.17;2.22;;;13.60;83.50;;;;;;5068071;28;20198;-71
2021/05/08 09:17:05;;;;;;;2.85;2.20;;;13.60;83.70;;;;;;5050747;28;20206;-71
2021/05/08 09:19:33;;;;;;;2.42;1.83;;;13.60;83.90;;;;;;5068437;28;20260;-71
2021/05/08 09:22:24;;;;;;;2.97;2.10;;;13.60;83.70;;;;;;5066537;28;20244;-71
2021/05/08 09:24:59;;;;;;;2.05;1.83;;;13.50;83.60;;;;;;5070268;28;20206;-71
2021/05/08 09:27:46;;;;;;;2.30;2.05;;;13.60;83.60;;;;;;5050444;28;20201;-71
2021/05/08 09:30:19;;;;;;;2.05;1.90;;;13.60;84.00;;;;;;5050598;28;20213;-71
2021/05/08 09:32:47;;;;;;;2.38;1.77;;;13.60;83.80;;;;;;5059581;28;20228;-71
2021/05/08 09:35:18;;;;;;;2.50;2.30;;;13.60;84.00;;;;;;5065561;28;20229;-71
2021/05/08 09:37:45;;;;;;;2.35;2.15;;;13.60;83.70;;;;;;5050569;28;20199;-71
2021/05/08 09:40:20;;;;;;;1.92;1.60;;;13.70;83.30;;;;;;5061258;28;20247;-71
2021/05/08 09:42:49;;;;;;;4.57;2.30;;;13.70;82.70;;;;;;5070068;28;20200;-71
2021/05/08 09:45:16;;;;;;;2.63;1.90;;;13.80;82.60;;;;;;5070139;28;20217;-70
2021/05/08 09:47:43;;;;;;;2.50;1.70;;;13.80;82.60;;;;;;5070475;28;20671;-70
2021/05/08 09:50:10;;;;;;;3.47;1.98;;;13.80;82.60;;;;;;5058949;28;20230;-72
2021/05/08 09:52:49;;;;;;;2.10;1.60;;;13.80;82.30;;;;;;5062722;28;20425;-71
2021/05/08 09:55:17;;;;;;;2.70;1.63;;;13.80;81.40;;;;;;5063959;28;20248;-70
2021/05/08 09:58:01;;;;;;;3.05;1.90;;;13.90;81.90;;;;;;5060642;28;20542;-70
2021/05/08 10:00:33;;;;;;;6.80;2.33;;;13.90;81.70;;;;;;5068234;28;20202;-69
2021/05/08 10:03:04;;;;;;;1.90;1.70;;;14.00;81.70;;;;;;5070355;28;20642;-69
2021/05/08 10:05:30;;;;;;;3.13;1.70;;;14.00;81.70;;;;;;5062419;28;20219;-70
2021/05/08 10:07:57;;;;;;;2.08;1.88;;;14.10;80.10;;;;;;5050516;28;20328;-70
2021/05/08 10:10:24;;;;;;;2.08;1.75;;;14.10;80.20;;;;;;5066756;28;20534;-69
2021/05/08 10:12:50;;;;;;;2.50;2.20;;;14.20;80.20;;;;;;5073338;28;20194;-70
2021/05/08 10:15:17;;;;;;;2.55;1.65;;;14.20;79.70;;;;;;5061782;28;20202;-69
2021/05/08 10:17:47;;;;;;;1.95;1.40;;;14.20;80.00;;;;;;5072474;28;20634;-70
2021/05/08 10:20:14;;;;;;;7.75;2.00;;;14.30;78.90;;;;;;5062097;28;20706;-69
2021/05/08 10:22:43;;;;;;;3.55;2.08;;;14.30;78.40;;;;;;5072343;28;20216;-70
2021/05/08 10:25:12;;;;;;;2.85;1.45;;;14.30;78.20;;;;;;5065885;28;20219;-70
2021/05/08 10:27:38;;;;;;;1.50;1.30;;;14.30;78.70;;;;;;5061420;28;20244;-70
2021/05/08 10:30:07;;;;;;;2.20;1.60;;;14.40;78.60;;;;;;5072481;28;20202;-70
2021/05/08 10:32:37;;;;;;;2.45;1.98;;;14.40;77.80;;;;;;5072083;28;20201;-70
2021/05/08 10:35:03;;;;;;;1.55;1.30;;;14.40;77.30;;;;;;5073503;28;20182;-70
2021/05/08 10:37:31;;;;;;;2.17;1.73;;;14.50;76.80;;;;;;5068699;28;20256;-70
2021/05/08 10:39:59;;;;;;;3.42;2.13;;;14.50;75.90;;;;;;5073290;28;20669;-70
2021/05/08 10:42:37;;;;;;;2.40;1.48;;;14.60;77.30;;;;;;5073616;28;20233;-70
2021/05/08 10:45:06;;;;;;;2.17;1.50;;;14.60;76.60;;;;;;5069229;28;20202;-70
2021/05/08 10:48:12;;;;;;;3.20;1.52;;;14.60;76.70;;;;;;5063156;28;20190;-70
2021/05/08 10:50:42;;;;;;;3.40;1.55;;;14.70;76.50;;;;;;5058481;28;20214;-70
2021/05/08 10:53:09;;;;;;;3.65;1.52;;;14.70;76.40;;;;;;5072739;28;20248;-70
2021/05/08 10:55:47;;;;;;;3.75;1.63;;;14.70;76.60;;;;;;5072285;28;20332;-70
2021/05/08 10:58:32;;;;;;;4.43;1.75;;;14.80;76.00;;;;;;5072064;28;20226;-70
2021/05/08 11:00:59;;;;;;;3.63;1.45;;;14.80;74.90;;;;;;5070548;28;20251;-70
2021/05/08 11:03:27;;;;;;;2.83;1.80;;;14.80;74.90;;;;;;5071138;28;20190;-70
2021/05/08 11:05:54;;;;;;;1.70;1.60;;;14.80;75.60;;;;;;5071816;28;20236;-69
2021/05/08 11:08:40;;;;;;;1.70;1.50;;;14.80;74.80;;;;;;5067356;28;20251;-70
2021/05/08 11:11:07;;;;;;;2.25;1.23;;;14.90;74.50;;;;;;5052735;28;20634;-70
2021/05/08 11:13:51;;;;;;;2.97;1.52;;;14.90;75.20;;;;;;5062587;28;20567;-69
2021/05/08 11:16:18;;;;;;;4.00;1.65;;;14.90;74.00;;;;;;5072744;28;20733;-69
2021/05/08 11:18:46;;;;;;;3.25;1.60;;;14.90;73.90;;;;;;5068567;28;20219;-69
2021/05/08 11:21:40;;;;;;;1.92;1.25;;;14.90;74.10;;;;;;5061337;28;20205;-69
2021/05/08 11:24:09;;;;;;;3.20;1.70;;;14.90;74.30;;;;;;5068472;28;20236;-70
2021/05/08 11:26:38;;;;;;;2.65;2.03;;;14.90;73.60;;;;;;5072550;28;20325;-69
2021/05/08 11:29:07;;;;;;;1.90;1.40;;;15.00;73.80;;;;;;5072972;28;20206;-69
2021/05/08 11:31:34;;;;;;;2.38;1.27;;;14.90;73.50;;;;;;5054866;28;20210;-70
2021/05/08 11:34:08;;;;;;;2.53;1.48;;;15.00;73.50;;;;;;5067364;28;20186;-70
2021/05/08 11:36:45;;;;;;;2.40;1.33;;;15.00;73.90;;;;;;5069507;28;20226;-70
2021/05/08 11:39:14;;;;;;;2.30;1.45;;;15.00;73.10;;;;;;5072080;28;20206;-69
2021/05/08 11:41:40;;;;;;;2.25;1.70;;;15.10;73.10;;;;;;5068206;28;20203;-69
2021/05/08 11:44:08;;;;;;;4.95;1.50;;;15.10;72.80;;;;;;5069860;28;20571;-70
2021/05/08 11:46:35;;;;;;;4.30;1.70;;;15.10;72.40;;;;;;5071405;28;20194;-70
2021/05/08 11:49:02;;;;;;;1.50;1.23;;;15.10;72.90;;;;;;5070702;28;20201;-70
2021/05/08 11:51:28;;;;;;;2.10;1.50;;;15.10;73.10;;;;;;5056444;28;20202;-70
2021/05/08 11:54:08;;;;;;;2.03;1.25;;;15.20;72.30;;;;;;5066373;28;20194;-70
2021/05/08 11:56:35;;;;;;;2.85;1.50;;;15.20;72.50;;;;;;5056992;28;20228;-71
2021/05/08 11:59:01;;;;;;;1.67;1.35;;;15.20;72.00;;;;;;5065466;28;20227;-70
2021/05/08 12:01:32;;;;;;;3.90;1.58;;;15.20;71.80;;;;;;5069758;28;20297;-70
2021/05/08 12:04:01;;;;;;;1.77;1.15;;;15.20;71.00;;;;;;5062144;28;20237;-69
2021/05/08 12:06:27;;;;;;;3.25;1.40;;;15.30;71.70;;;;;;5072058;28;20206;-68
2021/05/08 12:08:55;;;;;;;2.63;2.00;;;15.30;72.30;;;;;;5069967;28;20259;-68
2021/05/08 12:11:22;;;;;;;2.58;1.60;;;15.30;70.90;;;;;;5071056;28;20202;-68
2021/05/08 12:13:48;;;;;;;1.83;1.60;;;15.30;71.50;;;;;;5066307;28;20213;-68
2021/05/08 12:16:14;;;;;;;2.10;1.50;;;15.30;70.90;;;;;;5071815;28;20198;-68
2021/05/08 12:18:42;;;;;;;2.75;1.65;;;15.30;70.80;;;;;;5070154;28;20242;-69
2021/05/08 12:21:13;;;;;;;3.88;1.63;;;15.40;71.00;;;;;;5060407;28;20212;-68
2021/05/08 12:23:40;;;;;;;2.60;1.60;;;15.40;70.40;;;;;;5064762;28;20190;-68
2021/05/08 12:26:15;;;;;;;1.88;1.70;;;15.40;70.00;;;;;;5071461;28;20292;-68
2021/05/08 12:28:53;;;;;;;3.75;1.35;;;15.40;69.40;;;;;;5064787;28;20194;-68
2021/05/08 12:31:30;;;;;;;1.88;1.40;;;15.50;69.80;;;;;;5051796;28;20210;-67
2021/05/08 12:33:58;;;;;;;2.13;1.63;;;15.50;69.50;;;;;;5053156;28;20194;-68
2021/05/08 12:36:26;;;;;;;2.92;1.50;;;15.50;69.30;;;;;;5051534;28;20195;-70
2021/05/08 12:38:53;;;;;;;3.58;1.50;;;15.50;69.60;;;;;;5067093;28;20198;-68
2021/05/08 12:41:26;;;;;;;1.90;1.55;;;15.50;69.00;;;;;;5051513;28;20521;-68
2021/05/08 12:44:05;;;;;;;1.77;1.67;;;15.60;69.30;;;;;;5065002;28;20194;-68
2021/05/08 12:46:52;;;;;;;1.92;1.50;;;15.60;69.60;;;;;;5070545;28;20240;-70
2021/05/08 12:49:21;;;;;;;1.70;1.52;;;15.60;68.90;;;;;;5069745;28;20674;-69
2021/05/08 12:51:47;;;;;;;2.05;1.58;;;15.60;69.30;;;;;;5051338;28;20202;-71